Time;durP1;ratioP1;P1;durP2;ratioP2;P2;SDS_P1;SDS_P2;PMS_P1;PMS_P2;Temp;Humidity;BMP_temperature;BMP_pressure;BME280_temperature;BME280_humidity;BME280_pressure;Samples;Min_cycle;Max_cycle;Signal;HPM_P1;HPM_P2
2023/01/29 00:02:03;;;;;;;13.43;10.67;;;4.80;99.90;;;;;;5051759;28;20179;-51
2023/01/29 00:04:29;;;;;;;12.90;9.67;;;4.90;99.90;;;;;;5051810;28;20172;-49
2023/01/29 00:06:54;;;;;;;11.00;9.20;;;4.90;99.90;;;;;;5051713;28;20171;-51
2023/01/29 00:09:20;;;;;;;10.47;7.93;;;4.80;99.90;;;;;;5051678;28;20312;-50
2023/01/29 00:11:46;;;;;;;8.47;7.10;;;4.80;99.90;;;;;;5051428;28;20171;-48
2023/01/29 00:14:12;;;;;;;8.80;7.27;;;4.90;99.90;;;;;;5051743;28;20170;-49
2023/01/29 00:16:37;;;;;;;8.43;6.43;;;4.90;99.90;;;;;;5051712;28;20242;-48
2023/01/29 00:19:03;;;;;;;7.20;6.03;;;4.90;99.90;;;;;;5051429;28;20190;-46
2023/01/29 00:21:29;;;;;;;7.93;6.50;;;4.80;99.90;;;;;;5051349;28;20171;-51
2023/01/29 00:23:55;;;;;;;7.47;6.43;;;4.80;99.90;;;;;;5051436;28;20613;-49
2023/01/29 00:26:21;;;;;;;7.17;6.00;;;4.80;99.90;;;;;;5051508;28;20254;-49
2023/01/29 00:28:47;;;;;;;8.17;6.33;;;4.80;99.90;;;;;;5051459;28;20540;-49
2023/01/29 00:31:21;;;;;;;6.90;5.70;;;4.80;99.90;;;;;;5051295;28;20167;-49
2023/01/29 00:33:47;;;;;;;6.20;5.27;;;4.80;99.90;;;;;;5051314;28;20304;-48
2023/01/29 00:36:15;;;;;;;6.43;5.53;;;4.90;99.90;;;;;;5051334;28;20254;-49
2023/01/29 00:38:41;;;;;;;6.17;5.50;;;4.90;99.90;;;;;;5051018;28;20206;-48
2023/01/29 00:46:40;;;;;;;6.17;5.23;;;4.70;99.90;;;;;;5051523;28;20181;-49
2023/01/29 00:49:07;;;;;;;5.60;5.00;;;4.60;99.90;;;;;;5052416;28;20202;-47
2023/01/29 00:51:33;;;;;;;7.10;5.63;;;4.50;99.90;;;;;;5050947;28;20225;-49
2023/01/29 00:53:59;;;;;;;6.73;5.60;;;4.40;99.90;;;;;;5051055;28;20226;-49
2023/01/29 00:56:25;;;;;;;6.40;5.50;;;4.40;99.90;;;;;;5050651;28;20175;-49
2023/01/29 00:58:51;;;;;;;5.97;5.10;;;4.40;99.90;;;;;;5050912;28;20237;-49
2023/01/29 01:03:04;;;;;;;7.00;5.87;;;4.40;99.90;;;;;;5050729;28;20194;-49
2023/01/29 01:04:03;;;;;;;6.93;5.27;;;4.40;99.90;;;;;;5050831;28;20639;-48
2023/01/29 01:06:29;;;;;;;6.53;5.70;;;4.50;99.90;;;;;;5051497;28;20175;-49
2023/01/29 01:11:38;;;;;;;7.00;6.17;;;4.50;99.90;;;;;;5055181;28;20558;-49
2023/01/29 01:14:04;;;;;;;7.20;6.23;;;4.60;99.90;;;;;;5055085;28;20207;-48
2023/01/29 01:16:29;;;;;;;7.00;6.13;;;4.60;99.90;;;;;;5038004;28;20198;-49
2023/01/29 01:18:55;;;;;;;7.73;6.00;;;4.60;99.90;;;;;;5055219;28;20559;-49
2023/01/29 01:21:20;;;;;;;7.83;6.33;;;4.50;99.90;;;;;;5054425;28;20178;-53
2023/01/29 01:23:46;;;;;;;9.00;6.63;;;4.50;99.90;;;;;;5054852;28;20242;-49
2023/01/29 01:26:12;;;;;;;8.73;7.20;;;4.40;99.90;;;;;;5054626;28;20232;-52
2023/01/29 01:28:38;;;;;;;7.43;6.53;;;4.50;99.90;;;;;;5054542;28;20229;-52
2023/01/29 01:31:11;;;;;;;8.23;6.77;;;4.50;99.90;;;;;;5054437;28;20178;-52
2023/01/29 01:33:37;;;;;;;8.77;7.00;;;4.40;99.90;;;;;;5054552;28;20202;-50
2023/01/29 01:36:04;;;;;;;10.37;8.50;;;4.40;99.90;;;;;;5054697;28;20175;-50
2023/01/29 01:38:29;;;;;;;10.63;8.60;;;4.30;99.90;;;;;;5054111;28;20187;-49
2023/01/29 01:40:55;;;;;;;11.17;9.20;;;4.20;99.90;;;;;;5054327;28;20167;-52
2023/01/29 01:43:21;;;;;;;12.13;10.03;;;4.10;99.90;;;;;;5054355;28;20183;-50
2023/01/29 01:45:47;;;;;;;11.93;9.70;;;4.00;99.90;;;;;;5054383;28;20175;-50
2023/01/29 01:48:22;;;;;;;12.67;10.33;;;3.90;99.90;;;;;;5054150;28;20258;-50
2023/01/29 01:50:52;;;;;;;11.27;9.60;;;3.90;99.90;;;;;;5054023;28;20190;-47
2023/01/29 01:53:37;;;;;;;10.93;9.50;;;3.80;99.90;;;;;;5053894;28;20221;-52
2023/01/29 01:56:08;;;;;;;11.37;9.73;;;3.90;99.90;;;;;;5054248;28;20493;-50
2023/01/29 01:58:39;;;;;;;13.20;10.97;;;3.90;99.90;;;;;;5054059;28;20195;-51
2023/01/29 02:01:07;;;;;;;11.20;10.00;;;3.80;99.90;;;;;;5053845;28;20167;-50
2023/01/29 02:11:58;;;;;;;11.20;9.33;;;4.00;99.90;;;;;;5053782;28;20175;-51
2023/01/29 02:14:24;;;;;;;11.03;9.53;;;3.80;99.90;;;;;;5053920;28;20179;-50
2023/01/29 02:16:50;;;;;;;11.97;9.73;;;3.80;99.90;;;;;;5053776;28;20160;-47
2023/01/29 02:19:32;;;;;;;11.60;9.53;;;3.70;99.90;;;;;;5053009;28;20214;-48
2023/01/29 02:22:12;;;;;;;9.47;8.30;;;3.50;99.90;;;;;;5053768;28;20171;-48
2023/01/29 02:24:49;;;;;;;11.20;9.40;;;3.20;99.90;;;;;;5053968;28;20155;-49
2023/01/29 02:27:36;;;;;;;10.53;9.20;;;3.10;99.90;;;;;;5035763;28;20250;-49
2023/01/29 02:30:22;;;;;;;9.60;8.23;;;2.80;99.90;;;;;;5053458;28;20210;-47
2023/01/29 02:33:08;;;;;;;11.13;9.53;;;2.60;99.90;;;;;;5053476;28;20195;-50
2023/01/29 02:35:45;;;;;;;12.10;9.20;;;2.70;99.90;;;;;;5053449;28;20409;-49
2023/01/29 02:38:22;;;;;;;9.93;8.93;;;2.80;99.90;;;;;;5053148;28;20152;-49
2023/01/29 02:41:06;;;;;;;12.20;9.43;;;2.80;99.90;;;;;;5053148;28;20246;-50
2023/01/29 02:43:42;;;;;;;11.50;9.30;;;2.60;99.90;;;;;;5053361;28;20267;-52
2023/01/29 02:46:14;;;;;;;10.80;8.97;;;2.80;99.90;;;;;;5053262;28;20397;-48
2023/01/29 02:49:08;;;;;;;11.93;9.37;;;3.00;99.90;;;;;;5053129;28;20474;-49
2023/01/29 02:51:42;;;;;;;11.27;9.10;;;3.10;99.90;;;;;;5052932;28;20401;-49
2023/01/29 02:54:18;;;;;;;9.63;8.63;;;3.10;99.90;;;;;;5052907;28;20202;-52
2023/01/29 02:56:59;;;;;;;11.87;9.67;;;3.00;99.90;;;;;;5053012;28;20162;-49
2023/01/29 02:59:38;;;;;;;9.57;8.47;;;2.90;99.90;;;;;;5052819;28;20491;-50
2023/01/29 03:02:09;;;;;;;10.43;8.83;;;2.80;99.90;;;;;;5052801;28;20421;-49
2023/01/29 03:04:41;;;;;;;10.87;8.83;;;2.70;99.90;;;;;;5053000;28;20180;-49
2023/01/29 03:07:39;;;;;;;10.30;8.63;;;2.70;99.90;;;;;;5052740;28;20500;-48
2023/01/29 03:10:02;;;;;;;10.70;8.87;;;2.60;99.90;;;;;;5052541;28;20206;-48
2023/01/29 03:12:38;;;;;;;10.63;9.20;;;2.60;99.90;;;;;;5052625;28;20312;-50
2023/01/29 03:15:17;;;;;;;10.50;9.10;;;2.60;99.90;;;;;;5052721;28;20429;-51
2023/01/29 03:17:51;;;;;;;11.10;9.00;;;2.70;99.90;;;;;;5052751;28;20501;-49
2023/01/29 03:20:21;;;;;;;10.90;9.07;;;2.70;99.90;;;;;;5052164;28;20830;-49
2023/01/29 03:22:55;;;;;;;10.13;9.10;;;2.60;99.90;;;;;;5052528;28;20397;-53
2023/01/29 03:34:07;;;;;;;12.27;10.07;;;2.50;99.90;;;;;;5052415;28;20483;-49
2023/01/29 03:36:48;;;;;;;11.87;9.70;;;2.60;99.90;;;;;;5052552;28;20445;-47
2023/01/29 03:39:15;;;;;;;12.63;9.90;;;2.30;99.90;;;;;;5051881;28;20455;-48
2023/01/29 03:42:03;;;;;;;11.53;9.53;;;1.90;99.90;;;;;;5052035;28;20530;-49
2023/01/29 03:45:04;;;;;;;11.97;9.97;;;1.70;99.90;;;;;;5052257;28;20401;-48
2023/01/29 03:47:50;;;;;;;10.67;9.20;;;1.70;99.90;;;;;;5052058;28;20789;-49
2023/01/29 03:50:38;;;;;;;11.77;9.50;;;1.60;99.90;;;;;;5051734;28;20429;-51
2023/01/29 03:53:15;;;;;;;10.47;8.87;;;1.80;99.90;;;;;;5051781;28;20445;-49
2023/01/29 03:55:53;;;;;;;11.67;9.80;;;1.90;99.90;;;;;;5051995;28;20469;-48
2023/01/29 03:58:54;;;;;;;10.10;9.00;;;1.90;99.90;;;;;;5051732;28;20397;-48
2023/01/29 04:01:26;;;;;;;10.87;9.03;;;1.90;99.90;;;;;;5051534;28;20425;-49
2023/01/29 04:04:32;;;;;;;11.53;8.97;;;1.80;99.90;;;;;;5051829;28;20473;-49
2023/01/29 04:07:07;;;;;;;10.90;8.93;;;1.80;99.90;;;;;;5047477;28;20421;-54
2023/01/29 04:09:42;;;;;;;11.63;9.37;;;1.90;99.90;;;;;;5051544;28;20425;-49
2023/01/29 04:12:10;;;;;;;11.60;9.20;;;2.00;99.90;;;;;;5051417;28;21219;-48
2023/01/29 04:14:37;;;;;;;10.97;9.00;;;2.20;99.90;;;;;;5051592;28;20448;-50
2023/01/29 04:17:19;;;;;;;10.33;9.20;;;2.20;99.90;;;;;;5051504;28;20775;-50
2023/01/29 04:19:46;;;;;;;11.13;9.63;;;2.20;99.90;;;;;;5051449;28;20504;-52
2023/01/29 04:22:17;;;;;;;9.93;8.40;;;2.20;99.90;;;;;;5051184;28;20467;-49
2023/01/29 04:24:43;;;;;;;10.60;9.23;;;2.10;99.90;;;;;;5051409;28;20551;-53
2023/01/29 04:27:20;;;;;;;9.93;8.50;;;2.20;99.90;;;;;;5051074;28;20922;-48
2023/01/29 04:30:14;;;;;;;10.07;8.40;;;2.30;99.90;;;;;;5051204;28;20187;-51
2023/01/29 04:33:23;;;;;;;10.77;8.60;;;2.40;99.90;;;;;;5051254;28;20437;-48
2023/01/29 04:36:12;;;;;;;9.23;7.33;;;2.40;99.90;;;;;;4970146;28;20469;-51
2023/01/29 04:38:46;;;;;;;9.50;8.03;;;2.40;99.90;;;;;;4969952;28;20999;-51
2023/01/29 04:41:34;;;;;;;10.10;8.07;;;2.40;99.90;;;;;;4969640;28;20421;-48
2023/01/29 04:44:24;;;;;;;8.47;7.60;;;2.40;99.90;;;;;;4970323;28;20419;-49
2023/01/29 04:46:59;;;;;;;8.83;7.80;;;2.10;99.90;;;;;;4970118;28;20618;-51
2023/01/29 04:49:30;;;;;;;9.10;7.70;;;2.20;99.90;;;;;;4970096;28;20436;-52
2023/01/29 04:52:16;;;;;;;8.13;7.33;;;2.30;99.90;;;;;;4969626;28;20421;-49
2023/01/29 04:54:53;;;;;;;8.53;7.53;;;2.40;99.90;;;;;;4970199;28;20425;-49
2023/01/29 04:57:35;;;;;;;8.47;7.47;;;2.10;99.90;;;;;;4969970;28;20488;-47
2023/01/29 05:00:22;;;;;;;8.80;7.90;;;2.00;99.90;;;;;;4969936;28;21021;-49
2023/01/29 05:02:48;;;;;;;8.83;7.67;;;2.10;99.90;;;;;;4969942;28;20385;-48
2023/01/29 05:05:16;;;;;;;8.63;7.67;;;2.30;99.90;;;;;;4969885;28;20413;-51
2023/01/29 05:07:43;;;;;;;8.83;7.63;;;2.30;99.90;;;;;;4969782;28;20455;-51
2023/01/29 05:10:10;;;;;;;8.50;7.60;;;2.20;99.90;;;;;;4969732;28;20440;-47
2023/01/29 05:12:37;;;;;;;9.70;8.00;;;2.20;99.90;;;;;;5049819;28;20449;-53
2023/01/29 05:15:12;;;;;;;8.47;7.57;;;2.30;99.90;;;;;;5050819;28;20402;-45
2023/01/29 05:17:37;;;;;;;8.57;7.67;;;2.40;99.90;;;;;;5050746;28;20394;-48
2023/01/29 05:20:03;;;;;;;7.87;7.07;;;2.40;99.90;;;;;;5050630;28;20429;-47
2023/01/29 05:22:30;;;;;;;7.77;6.87;;;2.50;99.90;;;;;;5050473;28;20240;-48
2023/01/29 05:24:55;;;;;;;7.73;6.90;;;2.20;99.90;;;;;;5050766;28;20414;-51
2023/01/29 05:30:13;;;;;;;7.63;6.57;;;2.10;99.90;;;;;;5050488;28;20206;-48
2023/01/29 05:32:38;;;;;;;7.70;6.63;;;1.90;99.90;;;;;;5050666;28;20441;-49
2023/01/29 05:35:05;;;;;;;6.37;5.77;;;1.80;99.90;;;;;;5050682;28;20619;-49
2023/01/29 05:37:31;;;;;;;6.47;5.40;;;1.90;99.90;;;;;;5050544;28;20171;-49
2023/01/29 05:39:56;;;;;;;6.10;5.13;;;1.80;99.90;;;;;;5032424;28;20460;-49
2023/01/29 05:42:22;;;;;;;6.07;5.30;;;1.80;99.90;;;;;;5050458;28;20179;-51
2023/01/29 05:44:48;;;;;;;5.80;5.13;;;1.30;99.90;;;;;;5050831;28;20186;-52
2023/01/29 05:47:18;;;;;;;5.53;4.83;;;1.20;99.90;;;;;;5050675;28;20489;-51
2023/01/29 05:49:43;;;;;;;5.97;4.90;;;1.10;99.90;;;;;;5050503;28;20198;-49
2023/01/29 05:52:09;;;;;;;5.50;5.00;;;0.90;99.90;;;;;;5050190;28;20822;-50
2023/01/29 05:54:34;;;;;;;5.03;4.53;;;0.90;99.90;;;;;;5034815;28;20201;-48
2023/01/29 05:57:00;;;;;;;4.37;3.97;;;0.80;99.90;;;;;;5054261;28;20708;-49
2023/01/29 05:59:25;;;;;;;5.00;4.43;;;0.60;99.90;;;;;;5054048;28;20237;-50
2023/01/29 06:01:51;;;;;;;4.93;4.50;;;0.50;99.90;;;;;;5054026;28;20513;-49
2023/01/29 06:04:16;;;;;;;4.97;4.37;;;0.50;99.90;;;;;;5054086;28;20175;-49
2023/01/29 06:06:42;;;;;;;4.90;4.37;;;0.60;99.90;;;;;;5054020;28;20208;-50
2023/01/29 06:09:09;;;;;;;5.17;4.67;;;0.50;99.90;;;;;;5053719;28;20671;-51
2023/01/29 06:11:35;;;;;;;5.40;4.90;;;0.40;99.90;;;;;;5052715;28;20179;-48
2023/01/29 06:14:00;;;;;;;6.07;4.87;;;0.30;99.90;;;;;;5047934;28;20456;-50
2023/01/29 06:16:26;;;;;;;5.33;4.40;;;0.10;99.90;;;;;;5063127;28;20179;-52
2023/01/29 06:18:52;;;;;;;5.60;4.57;;;0.20;99.90;;;;;;5067279;28;20190;-50
2023/01/29 06:21:17;;;;;;;5.13;4.67;;;0.20;99.90;;;;;;5066414;28;20172;-49
2023/01/29 06:23:43;;;;;;;5.80;5.20;;;0.30;99.90;;;;;;5063901;28;20617;-51
2023/01/29 06:26:11;;;;;;;5.80;4.90;;;0.30;99.90;;;;;;5059599;28;20194;-49
2023/01/29 06:28:37;;;;;;;5.50;4.90;;;0.50;99.90;;;;;;5071400;28;20310;-48
2023/01/29 06:31:04;;;;;;;6.00;4.80;;;0.70;99.90;;;;;;5046816;28;20768;-48
2023/01/29 06:33:30;;;;;;;6.37;5.30;;;0.90;99.90;;;;;;5038129;28;20298;-48
2023/01/29 06:36:00;;;;;;;5.33;4.67;;;1.00;99.90;;;;;;5041811;28;20880;-50
2023/01/29 06:38:26;;;;;;;5.43;4.93;;;1.10;99.90;;;;;;5051717;28;20825;-49
2023/01/29 06:40:52;;;;;;;5.47;4.57;;;1.10;99.90;;;;;;5055132;28;20428;-52
2023/01/29 06:43:18;;;;;;;4.90;4.33;;;1.20;99.90;;;;;;5057706;28;20429;-48
2023/01/29 06:45:54;;;;;;;5.80;5.20;;;1.10;99.90;;;;;;5053206;28;20874;-49
2023/01/29 06:48:21;;;;;;;5.27;4.77;;;1.10;99.90;;;;;;5054571;28;20402;-48
2023/01/29 06:50:48;;;;;;;29.13;20.50;;;1.10;99.90;;;;;;5049619;28;20992;-50
2023/01/29 06:53:14;;;;;;;6.07;5.00;;;1.10;99.90;;;;;;5052182;28;20453;-48
2023/01/29 06:55:39;;;;;;;6.23;5.00;;;1.10;99.90;;;;;;5052350;28;20464;-48
2023/01/29 06:58:10;;;;;;;5.80;5.10;;;1.20;99.90;;;;;;5053253;28;20249;-44
2023/01/29 07:00:36;;;;;;;5.07;4.57;;;1.30;99.90;;;;;;5035775;28;20214;-49
2023/01/29 07:03:03;;;;;;;5.53;5.03;;;1.60;99.90;;;;;;5053000;28;20516;-48
2023/01/29 07:05:29;;;;;;;5.27;4.70;;;1.40;99.90;;;;;;5052392;28;20428;-51
2023/01/29 07:07:55;;;;;;;6.50;4.93;;;;;;;;;;5052777;28;20421;-51
2023/01/29 07:10:21;;;;;;;5.53;4.77;;;1.60;99.90;;;;;;5052707;28;20559;-50
2023/01/29 07:12:46;;;;;;;4.60;4.13;;;1.60;99.90;;;;;;5052778;28;20206;-48
2023/01/29 07:15:12;;;;;;;4.70;4.30;;;1.50;99.90;;;;;;5052798;28;20176;-48
2023/01/29 07:17:38;;;;;;;5.47;4.23;;;1.50;99.90;;;;;;5052432;28;20174;-51
2023/01/29 07:20:05;;;;;;;6.43;4.40;;;1.60;99.90;;;;;;5052449;28;20559;-48
2023/01/29 07:22:31;;;;;;;4.87;4.30;;;1.70;99.90;;;;;;5052126;28;20440;-49
2023/01/29 07:24:57;;;;;;;4.87;4.00;;;1.70;99.90;;;;;;5052740;28;20774;-49
2023/01/29 07:27:22;;;;;;;5.60;4.97;;;1.60;99.90;;;;;;5052318;28;20468;-49
2023/01/29 07:29:48;;;;;;;4.93;4.43;;;1.50;99.90;;;;;;5052260;28;20222;-47
2023/01/29 07:32:14;;;;;;;5.47;4.97;;;1.50;99.90;;;;;;5052280;28;20286;-42
2023/01/29 07:34:39;;;;;;;4.40;4.00;;;1.00;99.90;;;;;;5052404;28;20254;-49
2023/01/29 07:37:05;;;;;;;4.80;4.13;;;;;;;;;;5052388;28;20712;-48
2023/01/29 07:39:31;;;;;;;4.00;3.57;;;0.70;99.90;;;;;;5038522;28;20290;-48
2023/01/29 07:41:57;;;;;;;4.27;3.73;;;0.60;99.90;;;;;;5031923;28;20238;-49
2023/01/29 07:44:22;;;;;;;4.30;3.70;;;0.50;99.90;;;;;;5032069;28;20410;-49
2023/01/29 07:46:48;;;;;;;4.63;4.17;;;0.50;99.90;;;;;;5041108;28;20183;-49
2023/01/29 07:49:14;;;;;;;4.60;4.20;;;0.60;99.90;;;;;;5050426;28;20552;-48
2023/01/29 07:51:40;;;;;;;8.37;7.20;;;0.70;99.90;;;;;;5047104;28;20611;-48
2023/01/29 07:54:06;;;;;;;4.27;3.87;;;1.20;99.90;;;;;;5016202;28;20454;-48
2023/01/29 07:56:31;;;;;;;4.67;4.27;;;1.00;99.90;;;;;;5051500;28;20549;-48
2023/01/29 07:58:57;;;;;;;4.80;4.30;;;1.20;99.90;;;;;;5052368;28;20603;-50
2023/01/29 08:01:22;;;;;;;5.20;4.70;;;1.30;99.90;;;;;;5049575;28;20672;-47
2023/01/29 08:03:48;;;;;;;5.03;4.53;;;1.50;99.90;;;;;;5040541;28;20180;-50
2023/01/29 08:06:14;;;;;;;5.83;4.57;;;1.70;99.90;;;;;;5040848;28;20655;-48
2023/01/29 08:08:39;;;;;;;5.30;4.30;;;1.90;99.90;;;;;;5038516;28;20195;-47
2023/01/29 08:11:05;;;;;;;4.97;4.10;;;1.90;99.90;;;;;;5070128;28;20301;-48
2023/01/29 08:13:31;;;;;;;4.53;4.13;;;1.70;99.90;;;;;;5071600;28;20205;-48
2023/01/29 08:16:03;;;;;;;4.30;3.90;;;1.40;99.90;;;;;;5053079;28;20171;-49
2023/01/29 08:18:30;;;;;;;3.90;3.60;;;0.10;99.90;;;;;;5071556;28;20279;-45
2023/01/29 08:21:02;;;;;;;4.43;3.63;;;1.40;99.90;;;;;;5071491;28;20405;-47
2023/01/29 08:23:29;;;;;;;4.00;3.67;;;1.10;99.90;;;;;;5071745;28;20405;-50
2023/01/29 08:25:54;;;;;;;4.47;4.00;;;1.00;99.90;;;;;;5071376;28;20405;-49
2023/01/29 08:28:20;;;;;;;4.67;3.90;;;1.10;99.90;;;;;;5071298;28;20885;-43
2023/01/29 08:30:46;;;;;;;3.83;3.53;;;1.20;99.90;;;;;;5071399;28;20174;-48
2023/01/29 08:33:11;;;;;;;3.80;3.50;;;1.20;99.90;;;;;;5070986;28;20220;-48
2023/01/29 08:35:37;;;;;;;4.03;3.63;;;1.30;99.90;;;;;;5071287;28;20182;-47
2023/01/29 08:38:03;;;;;;;3.70;3.40;;;1.30;99.90;;;;;;5068772;28;20224;-48
2023/01/29 08:40:31;;;;;;;3.93;3.60;;;1.20;99.90;;;;;;5031007;28;20218;-49
2023/01/29 08:43:06;;;;;;;5.03;4.53;;;1.20;99.90;;;;;;5031631;28;20418;-48
2023/01/29 08:45:37;;;;;;;4.47;3.83;;;1.30;99.90;;;;;;5031433;28;21124;-47
2023/01/29 08:48:03;;;;;;;3.13;2.93;;;1.10;99.90;;;;;;5031477;28;20955;-48
2023/01/29 08:50:30;;;;;;;4.93;3.90;;;1.10;99.90;;;;;;5030898;28;20530;-48
2023/01/29 08:52:58;;;;;;;3.97;3.57;;;1.10;99.90;;;;;;5031601;28;20203;-43
2023/01/29 08:55:23;;;;;;;4.17;3.77;;;1.10;99.90;;;;;;5031605;28;20927;-48
2023/01/29 08:57:49;;;;;;;3.50;3.20;;;1.10;99.90;;;;;;5032373;28;20406;-51
2023/01/29 09:00:15;;;;;;;4.10;3.70;;;1.00;99.90;;;;;;5031334;28;20223;-48
2023/01/29 09:02:40;;;;;;;5.13;4.00;;;1.00;99.90;;;;;;5031146;28;20243;-47
2023/01/29 09:05:07;;;;;;;4.50;4.10;;;0.90;99.90;;;;;;5031527;28;20175;-45
2023/01/29 09:07:32;;;;;;;4.17;3.77;;;1.10;99.90;;;;;;5031881;28;20381;-45
2023/01/29 09:09:58;;;;;;;4.07;3.57;;;1.30;99.90;;;;;;5026542;28;20957;-44
2023/01/29 09:12:24;;;;;;;3.60;3.30;;;1.50;99.90;;;;;;5043698;28;20560;-44
2023/01/29 09:14:50;;;;;;;4.23;3.83;;;1.60;99.90;;;;;;5052729;28;20273;-45
2023/01/29 09:17:15;;;;;;;4.53;3.40;;;1.80;99.90;;;;;;5045728;28;20445;-50
2023/01/29 09:19:41;;;;;;;4.07;3.60;;;1.70;99.90;;;;;;5040500;28;20295;-43
2023/01/29 09:22:06;;;;;;;4.20;3.80;;;1.60;99.90;;;;;;5047417;28;20183;-42
2023/01/29 09:24:33;;;;;;;5.13;4.60;;;1.70;99.90;;;;;;5057192;28;20178;-48
2023/01/29 09:26:59;;;;;;;4.00;3.60;;;2.00;99.90;;;;;;5053114;28;20168;-48
2023/01/29 09:29:25;;;;;;;3.80;3.50;;;2.20;99.90;;;;;;5058093;28;20778;-48
2023/01/29 09:31:50;;;;;;;4.33;3.93;;;2.20;99.90;;;;;;5050834;28;20221;-48
2023/01/29 09:34:16;;;;;;;4.17;3.77;;;2.20;99.90;;;;;;5046481;28;20278;-42
2023/01/29 09:36:41;;;;;;;3.97;3.50;;;2.20;99.90;;;;;;5058672;28;20180;-44
2023/01/29 09:39:07;;;;;;;3.90;3.60;;;2.30;99.90;;;;;;5058878;28;20273;-47
2023/01/29 09:41:50;;;;;;;4.50;4.10;;;2.30;99.90;;;;;;5050515;28;20232;-47
2023/01/29 09:44:24;;;;;;;3.60;3.30;;;2.50;99.90;;;;;;5049055;28;20163;-48
2023/01/29 09:46:52;;;;;;;4.30;3.90;;;2.70;99.90;;;;;;5055294;28;20162;-46
2023/01/29 09:49:31;;;;;;;4.40;4.00;;;2.80;99.90;;;;;;5056265;28;20705;-49
2023/01/29 09:52:17;;;;;;;4.13;3.73;;;2.70;99.90;;;;;;5055680;28;20163;-41
2023/01/29 09:55:19;;;;;;;4.43;4.03;;;2.70;99.90;;;;;;5056342;28;20207;-42
2023/01/29 09:57:57;;;;;;;4.30;3.90;;;2.80;99.90;;;;;;5038015;28;20171;-42
2023/01/29 10:00:28;;;;;;;4.30;3.90;;;3.00;99.90;;;;;;5056156;28;20194;-42
2023/01/29 10:03:31;;;;;;;4.30;3.90;;;3.20;99.90;;;;;;5055665;28;20162;-43
2023/01/29 10:06:34;;;;;;;4.37;3.97;;;3.40;99.90;;;;;;5050755;28;20175;-44
2023/01/29 10:09:29;;;;;;;5.07;4.50;;;3.30;99.90;;;;;;5052268;28;20205;-43
2023/01/29 10:12:05;;;;;;;4.50;4.10;;;3.20;99.90;;;;;;5051243;28;20187;-45
2023/01/29 10:15:07;;;;;;;4.70;4.30;;;3.10;99.90;;;;;;5055741;28;20261;-46
2023/01/29 10:17:57;;;;;;;4.50;4.10;;;3.20;99.90;;;;;;5033240;28;20188;-47
2023/01/29 10:20:54;;;;;;;4.93;4.50;;;3.30;99.90;;;;;;5041745;28;20691;-45
2023/01/29 10:23:58;;;;;;;4.43;4.03;;;3.40;99.90;;;;;;5054200;28;20205;-47
2023/01/29 10:26:26;;;;;;;4.67;4.27;;;3.50;99.90;;;;;;4953929;29;20225;-45
2023/01/29 10:28:55;;;;;;;4.00;3.70;;;3.60;99.90;;;;;;4953839;29;20337;-42
2023/01/29 10:31:31;;;;;;;4.43;4.03;;;3.80;99.90;;;;;;4955197;29;20259;-43
2023/01/29 10:34:03;;;;;;;4.97;4.30;;;3.90;99.90;;;;;;4938674;29;20245;-45
2023/01/29 10:36:55;;;;;;;4.60;4.20;;;3.60;99.90;;;;;;4933806;29;20556;-48
2023/01/29 10:39:23;;;;;;;4.60;4.10;;;3.60;99.90;;;;;;4932052;29;20757;-50
2023/01/29 10:41:52;;;;;;;4.80;4.30;;;3.60;99.90;;;;;;4944261;29;20627;-49
2023/01/29 10:44:40;;;;;;;4.80;4.30;;;3.20;99.90;;;;;;4947004;29;20660;-48
2023/01/29 10:47:35;;;;;;;5.27;4.67;;;2.50;99.90;;;;;;4935116;29;20195;-46
2023/01/29 10:50:09;;;;;;;5.00;4.50;;;2.40;99.90;;;;;;4914384;29;20259;-44
2023/01/29 10:52:58;;;;;;;4.83;4.33;;;2.40;99.90;;;;;;4916089;29;20219;-44
2023/01/29 10:55:59;;;;;;;5.73;4.50;;;2.60;99.90;;;;;;4899499;29;20223;-42
2023/01/29 10:58:48;;;;;;;5.37;4.87;;;2.40;99.90;;;;;;4875309;29;20288;-49
2023/01/29 11:01:14;;;;;;;5.23;4.73;;;2.30;99.90;;;;;;4883760;29;20185;-48
2023/01/29 11:03:40;;;;;;;6.17;5.37;;;2.00;99.90;;;;;;4937540;29;20290;-42
2023/01/29 11:06:27;;;;;;;5.73;5.00;;;1.90;99.90;;;;;;4946085;29;20261;-47
2023/01/29 11:08:58;;;;;;;13.53;11.80;;;2.20;99.90;;;;;;4946389;29;20222;-48
2023/01/29 11:11:38;;;;;;;5.90;5.30;;;2.60;99.90;;;;;;4941093;29;20568;-48
2023/01/29 11:14:11;;;;;;;5.73;4.97;;;2.90;99.90;;;;;;4942052;29;20202;-42
2023/01/29 11:16:46;;;;;;;5.40;4.90;;;2.90;99.90;;;;;;4937323;29;20659;-48
2023/01/29 11:19:13;;;;;;;5.80;5.30;;;2.70;99.90;;;;;;4951959;29;20225;-48
2023/01/29 11:21:57;;;;;;;5.43;4.93;;;2.90;99.90;;;;;;4950650;29;20723;-49
2023/01/29 11:24:24;;;;;;;5.90;5.30;;;3.20;99.90;;;;;;4973200;28;20199;-47
2023/01/29 11:26:51;;;;;;;5.50;4.80;;;3.40;99.90;;;;;;4989126;28;20274;-47
2023/01/29 11:29:26;;;;;;;5.87;5.27;;;3.50;99.90;;;;;;4988905;28;20357;-47
2023/01/29 11:31:52;;;;;;;5.60;5.00;;;3.40;99.90;;;;;;4988840;28;20181;-48
2023/01/29 11:34:20;;;;;;;5.37;4.87;;;3.20;99.90;;;;;;4991426;28;20197;-47
2023/01/29 11:36:59;;;;;;;6.33;5.73;;;2.80;99.90;;;;;;5072049;28;20178;-49
2023/01/29 11:39:26;;;;;;;6.40;5.20;;;2.70;99.90;;;;;;5072291;28;20202;-49
2023/01/29 11:42:02;;;;;;;5.73;5.20;;;2.90;99.90;;;;;;5072326;28;20201;-47
2023/01/29 11:44:32;;;;;;;5.73;5.13;;;3.20;99.90;;;;;;5072455;28;20205;-47
2023/01/29 11:47:08;;;;;;;5.20;4.70;;;2.80;99.90;;;;;;5072384;28;20159;-48
2023/01/29 11:49:34;;;;;;;5.40;4.90;;;2.20;99.90;;;;;;5072318;28;20200;-49
2023/01/29 11:52:03;;;;;;;6.40;5.63;;;2.30;99.90;;;;;;5071121;28;20170;-48
2023/01/29 11:54:34;;;;;;;5.87;5.27;;;2.50;99.90;;;;;;5072437;28;20562;-47
2023/01/29 11:57:00;;;;;;;5.90;5.30;;;2.20;99.90;;;;;;5072029;28;20229;-51
2023/01/29 11:59:48;;;;;;;6.10;5.50;;;1.80;99.90;;;;;;5072860;28;20610;-47
2023/01/29 12:02:23;;;;;;;5.90;5.30;;;2.10;99.90;;;;;;5071748;28;20155;-51
2023/01/29 12:04:49;;;;;;;5.53;5.03;;;2.00;99.90;;;;;;5071991;28;20170;-47
2023/01/29 12:07:17;;;;;;;5.83;5.23;;;2.00;99.90;;;;;;5071893;28;20206;-49
2023/01/29 12:09:53;;;;;;;5.40;4.90;;;1.90;99.90;;;;;;5071799;28;20216;-48
2023/01/29 12:12:35;;;;;;;5.43;4.93;;;2.10;99.90;;;;;;5071570;28;20566;-49
2023/01/29 12:15:03;;;;;;;6.10;5.50;;;-0.20;99.90;;;;;;5071913;28;20681;-50
2023/01/29 12:17:32;;;;;;;6.00;5.50;;;1.90;99.90;;;;;;5071571;28;20170;-51
2023/01/29 12:20:05;;;;;;;5.37;4.87;;;2.00;99.90;;;;;;5071466;28;20689;-49
2023/01/29 12:23:26;;;;;;;5.87;5.27;;;2.00;99.90;;;;;;5071418;28;20220;-48
2023/01/29 12:26:14;;;;;;;6.43;5.23;;;1.90;99.90;;;;;;5039761;28;20186;-50
2023/01/29 12:28:40;;;;;;;5.97;5.37;;;;;;;;;;5071482;28;20217;-48
2023/01/29 12:31:20;;;;;;;6.70;5.73;;;1.80;99.90;;;;;;5071274;28;20179;-50
2023/01/29 12:34:09;;;;;;;6.63;5.93;;;1.80;99.90;;;;;;5071498;28;20691;-51
2023/01/29 12:36:54;;;;;;;6.17;5.57;;;2.30;99.90;;;;;;5071323;28;20196;-49
2023/01/29 12:39:20;;;;;;;6.20;5.60;;;2.30;99.90;;;;;;5071078;28;20392;-48
2023/01/29 12:41:51;;;;;;;6.70;6.00;;;2.10;99.90;;;;;;5071062;28;20249;-50
2023/01/29 12:44:19;;;;;;;6.50;5.90;;;2.20;99.90;;;;;;5071475;28;20163;-47
2023/01/29 12:46:59;;;;;;;6.77;6.07;;;2.50;99.90;;;;;;5071238;28;20615;-50
2023/01/29 12:49:29;;;;;;;7.53;6.77;;;2.40;99.90;;;;;;5072778;28;20227;-48
2023/01/29 12:52:03;;;;;;;7.17;6.47;;;1.80;99.90;;;;;;5071265;28;20271;-47
2023/01/29 12:55:00;;;;;;;7.20;6.50;;;1.80;99.90;;;;;;5071131;28;20205;-50
2023/01/29 12:57:42;;;;;;;6.67;6.07;;;1.60;99.90;;;;;;4989324;28;20276;-48
2023/01/29 13:00:32;;;;;;;7.13;6.43;;;1.50;99.90;;;;;;4989570;28;20523;-48
2023/01/29 13:03:06;;;;;;;7.87;6.60;;;1.60;99.90;;;;;;4989114;28;20189;-48
2023/01/29 13:05:42;;;;;;;6.97;6.27;;;1.60;99.90;;;;;;4989617;28;20189;-50
2023/01/29 13:08:36;;;;;;;6.90;6.20;;;1.50;99.90;;;;;;4989260;28;20487;-47
2023/01/29 13:11:07;;;;;;;7.23;6.53;;;1.50;99.90;;;;;;4927488;29;20426;-48
2023/01/29 13:14:01;;;;;;;6.77;6.07;;;2.00;99.90;;;;;;4931592;29;20554;-50
2023/01/29 13:16:33;;;;;;;6.97;6.27;;;2.10;99.90;;;;;;4931771;29;20262;-48
2023/01/29 13:19:03;;;;;;;8.20;6.93;;;2.20;99.90;;;;;;4931697;29;20206;-48
2023/01/29 13:21:35;;;;;;;8.40;6.53;;;2.10;99.90;;;;;;4931442;29;20191;-49
2023/01/29 13:24:16;;;;;;;6.73;6.13;;;1.90;99.90;;;;;;4931527;29;20490;-47
2023/01/29 13:26:46;;;;;;;7.53;6.60;;;2.20;99.90;;;;;;4931654;29;20281;-48
2023/01/29 13:29:27;;;;;;;6.50;5.90;;;2.30;99.90;;;;;;4931572;29;20297;-50
2023/01/29 13:31:58;;;;;;;7.43;6.73;;;2.30;99.90;;;;;;4931247;29;20254;-48
2023/01/29 13:34:32;;;;;;;6.90;6.20;;;2.70;99.90;;;;;;4960578;28;20254;-48
2023/01/29 13:37:08;;;;;;;6.70;6.00;;;2.50;99.90;;;;;;4976853;28;20243;-49
2023/01/29 13:39:43;;;;;;;7.77;6.93;;;2.60;99.90;;;;;;4961836;28;20233;-49
2023/01/29 13:42:19;;;;;;;15.10;11.47;;;3.00;99.90;;;;;;4969435;28;20190;-47
2023/01/29 13:44:51;;;;;;;34.93;30.67;;;3.20;99.90;;;;;;4969008;28;20217;-49
2023/01/29 13:47:32;;;;;;;7.60;6.90;;;3.30;99.90;;;;;;4985768;28;20222;-46
2023/01/29 13:50:06;;;;;;;7.43;6.63;;;3.70;99.90;;;;;;5037135;28;20203;-49
2023/01/29 13:52:55;;;;;;;6.47;5.87;;;3.80;99.90;;;;;;5040484;28;20204;-51